Time;durP1;ratioP1;P1;durP2;ratioP2;P2;SDS_P1;SDS_P2;PMS_P1;PMS_P2;Temp;Humidity;BMP_temperature;BMP_pressure;BME280_temperature;BME280_humidity;BME280_pressure;Samples;Min_cycle;Max_cycle;Signal;HPM_P1;HPM_P2
2023/09/21 00:00:32;;;;;;;8.63;2.53;;;21.20;97.60;;;;;;7399916;19;19911;-71
2023/09/21 00:02:58;;;;;;;6.70;2.25;;;21.20;97.60;;;;;;7395086;19;20526;-71
2023/09/21 00:05:30;;;;;;;5.68;1.95;;;21.20;97.40;;;;;;7394550;19;19926;-72
2023/09/21 00:07:57;;;;;;;8.02;2.70;;;21.20;97.00;;;;;;7395330;19;19938;-72
2023/09/21 00:10:23;;;;;;;7.50;2.53;;;21.20;97.00;;;;;;7391517;19;19943;-72
2023/09/21 00:12:49;;;;;;;5.70;2.95;;;21.10;97.10;;;;;;7396533;19;19954;-70
2023/09/21 00:15:19;;;;;;;6.20;2.22;;;21.10;96.70;;;;;;7394190;19;20354;-71
2023/09/21 00:17:46;;;;;;;8.93;2.10;;;21.20;94.90;;;;;;7396112;19;19928;-72
2023/09/21 00:20:36;;;;;;;5.78;2.35;;;21.30;93.60;;;;;;7393890;19;20338;-71
2023/09/21 00:23:06;;;;;;;5.93;2.88;;;21.30;93.80;;;;;;7396730;19;19910;-71
2023/09/21 00:25:34;;;;;;;5.90;2.10;;;21.40;93.30;;;;;;7391815;19;19971;-71
2023/09/21 00:28:12;;;;;;;6.68;2.65;;;21.40;92.80;;;;;;7396084;19;19974;-72
2023/09/21 00:30:38;;;;;;;7.10;2.55;;;21.50;92.70;;;;;;7394508;19;19930;-72
2023/09/21 00:33:07;;;;;;;8.98;2.72;;;21.50;92.10;;;;;;7393389;19;19921;-71
2023/09/21 00:35:39;;;;;;;10.13;2.63;;;21.50;91.30;;;;;;7396171;19;19914;-71
2023/09/21 00:38:07;;;;;;;6.72;2.53;;;21.50;91.30;;;;;;7395699;19;19927;-72
2023/09/21 00:40:32;;;;;;;7.18;2.58;;;21.60;90.70;;;;;;7397045;19;19915;-73
2023/09/21 00:43:01;;;;;;;7.07;2.28;;;21.60;90.40;;;;;;7394294;19;19921;-73
2023/09/21 00:45:26;;;;;;;6.75;2.60;;;21.70;90.10;;;;;;7396453;19;19964;-71
2023/09/21 00:47:54;;;;;;;7.25;2.30;;;21.70;90.20;;;;;;7395286;19;19918;-72
2023/09/21 00:50:22;;;;;;;7.13;2.60;;;21.80;90.00;;;;;;7391077;19;19911;-71
2023/09/21 00:52:53;;;;;;;5.78;2.22;;;21.80;90.10;;;;;;7393525;19;19921;-71
2023/09/21 00:55:24;;;;;;;7.35;2.60;;;21.70;90.40;;;;;;7394064;19;19915;-72
2023/09/21 00:57:56;;;;;;;6.15;2.33;;;21.50;90.90;;;;;;7395023;19;20015;-71
2023/09/21 01:00:27;;;;;;;6.63;2.85;;;21.40;91.30;;;;;;7392673;19;19928;-71
2023/09/21 01:02:54;;;;;;;6.47;2.83;;;21.40;91.70;;;;;;7393049;19;19914;-71
2023/09/21 01:05:21;;;;;;;7.53;2.92;;;21.40;92.00;;;;;;7392715;19;19914;-71
2023/09/21 01:07:51;;;;;;;5.05;2.50;;;21.30;91.90;;;;;;7393059;19;19914;-71
2023/09/21 01:10:22;;;;;;;7.45;3.05;;;21.20;92.60;;;;;;7391019;19;19918;-72
2023/09/21 01:12:51;;;;;;;6.95;3.05;;;21.20;92.60;;;;;;7394786;19;19982;-72
2023/09/21 01:15:18;;;;;;;6.68;3.30;;;21.20;92.70;;;;;;7389309;19;19982;-72
2023/09/21 01:17:47;;;;;;;7.13;2.47;;;21.10;93.30;;;;;;7396715;19;20389;-72
2023/09/21 01:20:27;;;;;;;7.38;3.00;;;20.90;93.70;;;;;;7391811;19;19919;-72
2023/09/21 01:23:14;;;;;;;6.25;2.95;;;20.90;94.30;;;;;;7392570;19;19930;-71
2023/09/21 01:25:44;;;;;;;9.00;3.47;;;20.80;95.20;;;;;;7392373;19;19974;-72
2023/09/21 01:28:16;;;;;;;8.70;3.83;;;20.80;95.40;;;;;;7393419;19;19918;-71
2023/09/21 01:30:45;;;;;;;9.27;3.47;;;20.70;95.70;;;;;;7391381;19;20019;-70
2023/09/21 01:33:12;;;;;;;7.95;2.95;;;20.60;96.30;;;;;;7392424;19;20367;-72
2023/09/21 01:35:38;;;;;;;8.93;3.30;;;20.60;96.70;;;;;;7395041;19;19918;-72
2023/09/21 01:38:06;;;;;;;;;;;20.50;96.80;;;;;;7393482;19;19907;-72
2023/09/21 01:40:36;;;;;;;6.93;3.13;;;20.50;97.10;;;;;;7393284;19;19910;-72
2023/09/21 01:43:14;;;;;;;7.57;3.28;;;20.40;97.40;;;;;;7395034;19;20062;-72
2023/09/21 01:45:42;;;;;;;5.80;2.78;;;20.50;97.40;;;;;;7370646;19;19925;-71
2023/09/21 01:48:09;;;;;;;9.20;2.75;;;20.50;97.90;;;;;;7369836;19;19925;-72
2023/09/21 01:50:48;;;;;;;7.25;2.85;;;20.40;98.20;;;;;;7391401;19;19948;-71
2023/09/21 01:53:16;;;;;;;6.90;3.08;;;20.40;98.20;;;;;;7392440;19;19915;-71
2023/09/21 01:55:43;;;;;;;5.63;2.30;;;20.30;98.30;;;;;;7394224;19;20696;-73
2023/09/21 01:58:12;;;;;;;9.32;3.70;;;20.30;98.80;;;;;;7391668;19;19915;-71
2023/09/21 02:00:39;;;;;;;8.20;2.83;;;20.30;99.30;;;;;;7393231;19;20263;-72
2023/09/21 02:03:06;;;;;;;7.18;3.08;;;20.40;99.20;;;;;;7390700;19;19914;-71
2023/09/21 02:05:36;;;;;;;7.45;2.97;;;20.40;99.10;;;;;;7392708;19;19925;-72
2023/09/21 02:08:04;;;;;;;8.18;3.08;;;20.40;99.20;;;;;;7391499;19;19970;-72
2023/09/21 02:10:31;;;;;;;7.65;3.13;;;20.30;99.70;;;;;;7390784;19;20496;-71
2023/09/21 02:12:59;;;;;;;7.28;3.72;;;20.30;99.90;;;;;;7396338;19;19906;-72
2023/09/21 02:15:27;;;;;;;9.32;3.30;;;20.30;99.90;;;;;;7391067;19;20273;-71
2023/09/21 02:17:55;;;;;;;9.05;3.55;;;20.40;99.90;;;;;;7397275;19;19922;-71
2023/09/21 02:20:22;;;;;;;10.77;3.90;;;20.40;99.90;;;;;;7397233;19;19918;-70
2023/09/21 02:22:53;;;;;;;10.65;3.83;;;20.40;99.90;;;;;;7396593;19;19918;-71
2023/09/21 02:25:20;;;;;;;9.85;3.47;;;20.50;99.90;;;;;;7395982;19;19918;-71
2023/09/21 02:27:47;;;;;;;10.30;3.03;;;20.40;99.90;;;;;;7399842;19;19919;-72
2023/09/21 02:30:21;;;;;;;8.07;3.40;;;20.40;99.90;;;;;;7393164;19;20325;-71
2023/09/21 02:32:55;;;;;;;10.90;3.80;;;20.30;99.90;;;;;;7399495;19;19915;-71
2023/09/21 02:35:29;;;;;;;8.40;3.67;;;20.30;99.90;;;;;;7397081;19;20503;-70
2023/09/21 02:37:56;;;;;;;10.52;3.40;;;20.50;99.90;;;;;;7397657;19;19907;-72
2023/09/21 02:40:24;;;;;;;9.50;3.28;;;20.50;99.90;;;;;;7395546;19;19935;-71
2023/09/21 02:42:54;;;;;;;10.18;3.83;;;20.40;99.90;;;;;;7396512;19;19907;-71
2023/09/21 02:45:23;;;;;;;10.77;3.92;;;20.40;99.90;;;;;;7397932;19;19949;-71
2023/09/21 02:47:54;;;;;;;9.70;4.15;;;20.40;99.90;;;;;;7398482;19;19918;-70
2023/09/21 02:50:25;;;;;;;10.63;3.60;;;20.60;99.90;;;;;;7394740;19;19915;-71
2023/09/21 02:53:06;;;;;;;11.80;3.33;;;20.60;99.90;;;;;;7394856;19;19929;-70
2023/09/21 02:55:33;;;;;;;10.77;3.58;;;20.60;99.90;;;;;;7399486;19;19951;-71
2023/09/21 02:58:04;;;;;;;12.70;3.95;;;20.70;99.90;;;;;;7401642;19;19914;-71
2023/09/21 03:03:02;;;;;;;8.40;3.47;;;20.80;99.90;;;;;;7398901;19;19915;-71
2023/09/21 03:05:28;;;;;;;12.00;3.70;;;20.80;99.90;;;;;;7398902;19;19957;-70
2023/09/21 03:07:55;;;;;;;11.55;3.85;;;20.90;99.90;;;;;;7395738;19;19923;-72
2023/09/21 03:10:25;;;;;;;11.52;4.03;;;20.80;99.90;;;;;;7395307;19;19936;-71
2023/09/21 03:12:52;;;;;;;9.30;3.78;;;20.80;99.90;;;;;;7399746;19;19954;-72
2023/09/21 03:15:22;;;;;;;13.57;4.03;;;20.80;99.90;;;;;;7395691;19;19915;-72
2023/09/21 03:17:52;;;;;;;8.10;3.10;;;20.80;99.90;;;;;;7399167;19;19951;-71
2023/09/21 03:20:25;;;;;;;10.00;3.92;;;20.90;99.90;;;;;;7374684;19;19925;-70
2023/09/21 03:22:53;;;;;;;11.35;3.92;;;20.90;99.90;;;;;;7398473;19;19942;-71
2023/09/21 03:25:25;;;;;;;8.52;3.38;;;20.90;99.90;;;;;;7395631;19;19918;-70
2023/09/21 03:27:55;;;;;;;6.68;3.03;;;20.90;99.90;;;;;;7397416;19;20360;-70
2023/09/21 03:30:24;;;;;;;11.70;3.58;;;20.80;99.90;;;;;;7394712;19;19915;-72
2023/09/21 03:32:51;;;;;;;9.25;3.30;;;20.80;99.90;;;;;;7398190;19;19915;-71
2023/09/21 03:35:17;;;;;;;10.48;3.47;;;20.70;99.90;;;;;;7394732;19;19944;-72
2023/09/21 03:37:47;;;;;;;9.18;3.30;;;20.70;99.90;;;;;;7397456;19;19929;-71
2023/09/21 03:40:13;;;;;;;5.85;3.40;;;20.70;99.90;;;;;;7395637;19;19907;-72
2023/09/21 03:42:41;;;;;;;8.55;3.45;;;20.60;99.90;;;;;;7395928;19;19915;-71
2023/09/21 03:45:08;;;;;;;9.25;3.60;;;20.60;99.90;;;;;;7395113;19;19917;-72
2023/09/21 03:47:34;;;;;;;8.35;3.17;;;20.70;99.90;;;;;;7395619;19;19907;-72
2023/09/21 03:50:02;;;;;;;10.02;3.35;;;20.70;99.90;;;;;;7396184;19;20588;-72
2023/09/21 03:52:28;;;;;;;8.85;2.92;;;20.70;99.90;;;;;;7397293;19;19930;-71
2023/09/21 03:54:55;;;;;;;9.23;3.60;;;20.80;99.90;;;;;;7396276;19;20327;-71
2023/09/21 03:57:21;;;;;;;8.07;3.20;;;20.80;99.90;;;;;;7398286;19;20374;-72
2023/09/21 03:59:47;;;;;;;7.30;3.00;;;20.70;99.90;;;;;;7396260;19;19919;-71
2023/09/21 04:02:14;;;;;;;9.30;2.88;;;20.80;99.90;;;;;;7393325;19;19917;-73
2023/09/21 04:04:41;;;;;;;9.07;3.30;;;20.90;99.90;;;;;;7398140;19;19915;-71
2023/09/21 04:07:12;;;;;;;7.18;2.90;;;21.00;99.40;;;;;;7396191;19;19910;-72
2023/09/21 04:09:38;;;;;;;8.55;2.97;;;20.90;98.80;;;;;;7397284;19;19994;-71
2023/09/21 04:12:04;;;;;;;5.65;2.90;;;20.90;98.70;;;;;;7395720;19;19982;-72
2023/09/21 04:14:30;;;;;;;8.13;2.42;;;20.90;98.80;;;;;;7397831;19;20247;-72
2023/09/21 04:16:56;;;;;;;7.70;2.97;;;20.80;98.90;;;;;;7397689;19;19926;-73
2023/09/21 04:19:25;;;;;;;7.75;2.80;;;20.80;99.30;;;;;;7395953;19;19934;-73
2023/09/21 04:21:50;;;;;;;9.15;3.00;;;20.70;99.90;;;;;;7395833;19;20377;-72
2023/09/21 04:24:19;;;;;;;10.57;3.55;;;20.70;99.90;;;;;;7394289;19;19926;-72
2023/09/21 04:26:45;;;;;;;7.22;3.00;;;20.70;99.90;;;;;;7395817;19;20368;-72
2023/09/21 04:29:15;;;;;;;10.02;4.07;;;20.70;99.90;;;;;;7396774;19;19910;-72
2023/09/21 04:31:42;;;;;;;6.55;2.67;;;20.70;99.90;;;;;;7395995;19;19928;-72
2023/09/21 04:34:07;;;;;;;7.38;3.00;;;20.80;98.60;;;;;;7395321;19;19921;-71
2023/09/21 04:36:33;;;;;;;6.90;2.60;;;20.90;98.10;;;;;;7395009;19;19919;-72
2023/09/21 04:39:00;;;;;;;7.75;3.28;;;20.90;97.40;;;;;;7393997;19;19946;-72
2023/09/21 04:41:27;;;;;;;5.45;2.88;;;20.90;96.60;;;;;;7394919;19;19925;-72
2023/09/21 04:43:54;;;;;;;6.72;2.40;;;21.10;94.70;;;;;;7392864;19;20344;-72
2023/09/21 04:46:20;;;;;;;7.28;2.90;;;21.20;93.30;;;;;;7395876;19;20366;-73
2023/09/21 04:48:46;;;;;;;7.53;2.90;;;21.10;93.50;;;;;;7393397;19;20331;-72
2023/09/21 04:51:16;;;;;;;6.43;2.85;;;21.10;93.30;;;;;;7393279;19;19929;-72
2023/09/21 04:53:42;;;;;;;6.70;2.78;;;21.20;91.70;;;;;;7395813;19;19911;-73
2023/09/21 04:56:08;;;;;;;6.82;2.97;;;21.20;91.00;;;;;;7395197;19;19927;-71
2023/09/21 04:58:35;;;;;;;6.72;2.13;;;21.20;90.60;;;;;;7397590;19;19910;-72
2023/09/21 05:01:10;;;;;;;7.45;2.63;;;21.30;88.20;;;;;;7400418;19;20372;-71
2023/09/21 05:03:37;;;;;;;7.85;2.95;;;21.30;88.60;;;;;;7371739;19;19978;-72
2023/09/21 05:06:04;;;;;;;8.65;2.60;;;21.20;91.90;;;;;;7395198;19;19922;-72
2023/09/21 05:08:36;;;;;;;13.55;3.42;;;21.00;91.60;;;;;;7396659;19;19922;-72
2023/09/21 05:11:04;;;;;;;7.70;3.03;;;21.00;92.80;;;;;;7395594;19;19917;-72
2023/09/21 05:13:29;;;;;;;6.75;3.20;;;20.80;93.40;;;;;;7395167;19;19950;-72
2023/09/21 05:15:55;;;;;;;6.88;2.70;;;20.80;92.90;;;;;;7394065;19;20270;-72
2023/09/21 05:18:22;;;;;;;9.63;2.95;;;20.70;93.20;;;;;;7394290;19;19930;-72
2023/09/21 05:20:49;;;;;;;6.78;3.10;;;20.70;92.50;;;;;;7393816;19;19918;-72
2023/09/21 05:23:15;;;;;;;7.00;2.80;;;20.80;91.30;;;;;;7392918;19;20300;-72
2023/09/21 05:25:40;;;;;;;8.57;3.65;;;20.80;91.20;;;;;;7395683;19;19952;-72
2023/09/21 05:28:07;;;;;;;8.23;2.55;;;20.70;92.40;;;;;;7393296;19;19939;-72
2023/09/21 05:30:32;;;;;;;5.85;2.65;;;20.70;91.50;;;;;;7393434;19;19921;-71
2023/09/21 05:33:01;;;;;;;6.80;2.35;;;20.70;91.60;;;;;;7394620;19;19910;-72
2023/09/21 05:35:27;;;;;;;6.85;3.40;;;20.70;92.10;;;;;;7392826;19;19921;-72
2023/09/21 05:37:53;;;;;;;9.23;2.97;;;20.60;91.70;;;;;;7397133;19;19922;-72
2023/09/21 05:40:21;;;;;;;7.05;3.30;;;20.50;91.60;;;;;;7393345;19;20654;-72
2023/09/21 05:42:47;;;;;;;7.30;2.67;;;20.60;91.40;;;;;;7394058;19;19919;-72
2023/09/21 05:45:13;;;;;;;7.85;2.65;;;20.60;90.50;;;;;;7372136;19;19907;-72
2023/09/21 05:47:39;;;;;;;5.53;2.60;;;20.70;89.70;;;;;;7384943;19;20258;-72
2023/09/21 05:50:06;;;;;;;7.85;3.03;;;20.60;89.20;;;;;;7391938;19;19921;-73
2023/09/21 05:52:34;;;;;;;7.93;3.13;;;20.70;89.60;;;;;;7400275;19;19933;-71
2023/09/21 05:55:00;;;;;;;10.07;2.67;;;20.70;88.10;;;;;;7401829;19;19915;-72
2023/09/21 05:57:27;;;;;;;6.07;2.63;;;20.70;86.20;;;;;;7403627;19;20538;-72
2023/09/21 05:59:54;;;;;;;6.13;2.58;;;20.80;85.10;;;;;;7400368;19;19934;-72
2023/09/21 06:02:21;;;;;;;10.15;2.95;;;20.90;84.00;;;;;;7398812;19;19922;-72
2023/09/21 06:04:47;;;;;;;8.82;2.95;;;20.90;83.80;;;;;;7399165;19;19923;-72
2023/09/21 06:07:14;;;;;;;5.45;2.83;;;21.10;81.80;;;;;;7400272;19;19911;-72
2023/09/21 06:09:43;;;;;;;9.23;4.97;;;21.10;81.60;;;;;;7399286;19;20044;-72
2023/09/21 06:12:11;;;;;;;8.30;2.90;;;21.20;81.80;;;;;;7399208;19;19914;-72
2023/09/21 06:14:37;;;;;;;12.98;3.22;;;21.20;82.00;;;;;;7396474;19;19926;-72
2023/09/21 06:17:05;;;;;;;8.20;2.95;;;21.20;80.90;;;;;;7400733;19;19953;-72
2023/09/21 06:19:32;;;;;;;7.05;2.90;;;21.30;81.30;;;;;;7400284;19;19935;-73
2023/09/21 06:21:58;;;;;;;;;;;21.30;81.10;;;;;;7402925;19;19949;-72
2023/09/21 06:24:25;;;;;;;7.95;2.88;;;21.30;80.00;;;;;;7398508;19;20382;-72
2023/09/21 06:26:53;;;;;;;6.13;2.67;;;21.30;80.10;;;;;;7398710;19;19922;-72
2023/09/21 06:29:22;;;;;;;7.25;2.50;;;21.30;79.50;;;;;;7398749;19;19915;-72
2023/09/21 06:31:48;;;;;;;5.72;2.60;;;21.30;79.70;;;;;;7399915;19;20443;-73
2023/09/21 06:34:18;;;;;;;5.82;2.55;;;21.40;78.20;;;;;;7397936;19;19990;-73
2023/09/21 06:36:44;;;;;;;6.63;3.03;;;21.40;77.30;;;;;;7400976;19;20632;-72
2023/09/21 06:39:11;;;;;;;;;;;21.50;78.20;;;;;;7399968;19;20363;-71
2023/09/21 06:41:37;;;;;;;13.13;2.97;;;21.50;77.40;;;;;;7396809;19;20026;-72
2023/09/21 06:44:04;;;;;;;12.48;3.25;;;21.60;75.70;;;;;;7395583;19;19922;-73
2023/09/21 06:46:30;;;;;;;8.27;3.10;;;21.60;75.20;;;;;;7397209;19;19915;-74
2023/09/21 06:48:55;;;;;;;6.93;3.28;;;21.70;73.80;;;;;;7392735;19;19950;-73
2023/09/21 06:51:21;;;;;;;6.35;3.10;;;21.70;73.50;;;;;;7398712;19;19941;-72
2023/09/21 06:53:48;;;;;;;8.88;3.50;;;21.80;74.70;;;;;;7405329;19;19934;-73
2023/09/21 06:56:14;;;;;;;9.98;3.55;;;21.80;74.90;;;;;;7401929;19;19942;-72
2023/09/21 06:58:40;;;;;;;11.85;3.30;;;21.90;73.10;;;;;;7402043;19;19910;-73
2023/09/21 07:01:10;;;;;;;10.27;3.38;;;22.00;74.80;;;;;;7395820;19;19994;-73
2023/09/21 07:03:36;;;;;;;9.45;3.65;;;22.00;75.00;;;;;;7396872;19;19919;-72
2023/09/21 07:06:06;;;;;;;8.25;3.00;;;22.00;75.20;;;;;;7396800;19;19918;-72
2023/09/21 07:08:31;;;;;;;10.35;3.30;;;22.00;72.30;;;;;;7379604;19;19931;-72
2023/09/21 07:10:57;;;;;;;7.35;2.65;;;22.10;72.30;;;;;;7399206;19;19922;-73
2023/09/21 07:13:24;;;;;;;8.80;3.30;;;22.10;68.10;;;;;;7395431;19;19957;-73
2023/09/21 07:15:52;;;;;;;6.82;3.20;;;22.10;69.00;;;;;;7396850;19;19915;-72
2023/09/21 07:18:18;;;;;;;7.50;2.97;;;22.10;68.90;;;;;;7400571;19;19919;-73
2023/09/21 07:20:44;;;;;;;9.63;3.80;;;22.10;69.30;;;;;;7401811;19;20151;-74
2023/09/21 07:23:10;;;;;;;9.07;3.28;;;22.10;70.70;;;;;;7401790;19;19946;-73
2023/09/21 07:25:36;;;;;;;10.48;3.38;;;22.10;69.00;;;;;;7402463;19;19918;-73
2023/09/21 07:28:02;;;;;;;8.25;3.08;;;22.20;68.50;;;;;;7401917;19;20275;-73
2023/09/21 07:30:32;;;;;;;9.30;3.08;;;22.20;66.70;;;;;;7402338;19;19986;-73
2023/09/21 07:32:58;;;;;;;8.55;2.63;;;22.20;66.10;;;;;;7400900;19;20260;-72
2023/09/21 07:35:24;;;;;;;7.13;3.33;;;22.30;64.50;;;;;;7401370;19;19911;-72
2023/09/21 07:37:51;;;;;;;11.88;3.38;;;22.40;65.20;;;;;;7404733;19;19990;-74
2023/09/21 07:40:18;;;;;;;10.30;3.85;;;22.40;63.60;;;;;;7400681;19;19928;-73
2023/09/21 07:42:45;;;;;;;9.73;2.88;;;22.50;62.30;;;;;;7373359;19;19933;-73
2023/09/21 07:45:11;;;;;;;8.93;3.17;;;22.50;61.10;;;;;;7393330;19;19918;-73
2023/09/21 07:47:38;;;;;;;7.20;2.92;;;22.60;61.40;;;;;;7389336;19;19922;-73
2023/09/21 07:50:06;;;;;;;6.75;2.63;;;22.60;59.30;;;;;;7400409;19;19926;-72
2023/09/21 07:52:36;;;;;;;9.90;3.33;;;22.70;59.10;;;;;;7385242;19;19918;-72
2023/09/21 07:55:03;;;;;;;8.75;3.10;;;22.70;59.20;;;;;;7403878;19;19931;-72
2023/09/21 07:57:39;;;;;;;8.70;3.10;;;22.80;58.70;;;;;;7401626;19;19942;-72
2023/09/21 08:00:09;;;;;;;9.35;3.53;;;22.90;58.80;;;;;;7378137;19;19924;-72
2023/09/21 08:02:36;;;;;;;9.43;3.83;;;23.00;58.60;;;;;;7345143;19;19919;-72
2023/09/21 08:05:04;;;;;;;9.07;3.33;;;23.00;58.30;;;;;;7372710;19;19922;-72
2023/09/21 08:07:30;;;;;;;6.15;3.03;;;23.00;58.80;;;;;;7362554;19;19926;-72
2023/09/21 08:09:56;;;;;;;6.93;3.00;;;23.00;58.30;;;;;;7357848;19;19919;-73
2023/09/21 08:12:24;;;;;;;6.50;2.65;;;22.90;58.20;;;;;;7362680;19;19926;-72
2023/09/21 08:14:50;;;;;;;6.28;3.10;;;23.00;57.90;;;;;;7377885;19;19911;-73
2023/09/21 08:17:17;;;;;;;7.32;2.95;;;23.00;57.80;;;;;;7366436;19;20589;-74
2023/09/21 08:19:44;;;;;;;11.60;2.70;;;23.00;57.20;;;;;;7348291;19;19960;-73
2023/09/21 08:22:10;;;;;;;10.07;3.10;;;23.00;56.00;;;;;;7352196;19;19923;-72
2023/09/21 08:24:36;;;;;;;8.35;2.80;;;23.00;56.30;;;;;;7340497;19;19931;-72
2023/09/21 08:27:05;;;;;;;10.93;3.92;;;23.10;55.40;;;;;;7344608;19;19919;-71
2023/09/21 08:29:31;;;;;;;8.25;3.08;;;23.20;56.10;;;;;;7359934;19;19921;-72
2023/09/21 08:31:57;;;;;;;7.68;3.30;;;23.20;56.50;;;;;;7359924;19;19935;-72
2023/09/21 08:34:24;;;;;;;7.53;2.88;;;23.30;56.40;;;;;;7363305;19;19988;-72
2023/09/21 08:36:51;;;;;;;;;;;23.30;56.20;;;;;;7399660;19;20248;-72
2023/09/21 08:39:17;;;;;;;8.88;3.45;;;23.60;55.20;;;;;;7367966;19;19947;-73
2023/09/21 08:41:50;;;;;;;9.35;3.40;;;23.90;54.30;;;;;;7397798;19;20609;-72
2023/09/21 08:44:20;;;;;;;7.40;3.45;;;24.20;51.60;;;;;;7370938;19;19910;-72
2023/09/21 08:46:47;;;;;;;7.10;2.92;;;24.20;49.30;;;;;;7389162;19;19941;-73
2023/09/21 08:49:18;;;;;;;6.07;3.28;;;24.50;49.00;;;;;;7399770;19;19939;-72
2023/09/21 08:51:44;;;;;;;9.10;3.80;;;24.60;47.60;;;;;;7399780;19;20323;-73
2023/09/21 08:54:16;;;;;;;;;;;24.60;48.30;;;;;;7391923;19;19919;-72
2023/09/21 08:56:46;;;;;;;10.32;3.80;;;24.40;48.40;;;;;;7382577;19;19946;-71
2023/09/21 08:59:13;;;;;;;6.78;2.53;;;24.30;48.30;;;;;;7392293;19;19910;-72
2023/09/21 09:01:40;;;;;;;7.43;3.42;;;24.20;47.60;;;;;;7385655;19;20014;-72
2023/09/21 09:04:07;;;;;;;7.72;3.35;;;24.30;47.00;;;;;;7374849;19;19919;-73
2023/09/21 09:06:33;;;;;;;5.40;2.50;;;24.30;46.60;;;;;;7395955;19;19938;-72
2023/09/21 09:08:59;;;;;;;7.57;3.30;;;24.30;44.30;;;;;;7393114;19;19911;-72
2023/09/21 09:11:45;;;;;;;5.95;2.83;;;24.50;44.30;;;;;;7387433;19;19918;-71
2023/09/21 09:14:19;;;;;;;7.45;3.30;;;24.90;41.70;;;;;;7390769;19;19934;-72
2023/09/21 09:16:51;;;;;;;6.38;3.00;;;25.90;40.90;;;;;;7388284;19;19922;-72
2023/09/21 09:19:18;;;;;;;6.68;3.63;;;26.40;37.70;;;;;;7367687;19;19919;-74
2023/09/21 09:21:49;;;;;;;7.72;2.72;;;26.40;36.60;;;;;;7392333;19;19942;-72
2023/09/21 09:24:16;;;;;;;7.03;3.03;;;25.80;37.20;;;;;;7399641;19;19922;-73
2023/09/21 09:26:42;;;;;;;;;;;25.30;38.40;;;;;;7402288;19;20422;-72
2023/09/21 09:29:12;;;;;;;9.25;3.03;;;25.30;39.40;;;;;;7376759;19;19914;-72
2023/09/21 09:31:41;;;;;;;7.13;3.72;;;25.20;38.50;;;;;;7400053;19;19907;-73
2023/09/21 09:34:09;;;;;;;8.07;3.65;;;25.90;38.50;;;;;;7398467;19;19923;-72
2023/09/21 09:36:38;;;;;;;6.57;2.50;;;27.10;35.30;;;;;;7402289;19;20457;-73
2023/09/21 09:39:08;;;;;;;8.00;3.28;;;27.40;34.10;;;;;;7399143;19;19918;-72
2023/09/21 09:41:35;;;;;;;6.35;3.70;;;28.70;33.30;;;;;;7400776;19;19921;-72
2023/09/21 09:44:06;;;;;;;7.07;3.85;;;28.50;29.80;;;;;;7399923;19;20323;-73
2023/09/21 09:46:37;;;;;;;6.40;3.45;;;28.30;29.30;;;;;;7399208;19;19919;-72
2023/09/21 09:49:05;;;;;;;7.10;4.00;;;27.90;29.50;;;;;;7394222;19;19918;-73
2023/09/21 09:51:44;;;;;;;7.88;3.25;;;27.30;28.90;;;;;;7393373;19;19986;-72
2023/09/21 09:54:13;;;;;;;5.22;3.35;;;27.40;29.30;;;;;;7392221;19;19919;-73
2023/09/21 09:56:41;;;;;;;6.00;3.30;;;26.90;28.50;;;;;;7392343;19;19918;-72
2023/09/21 09:59:12;;;;;;;8.65;3.92;;;27.10;29.60;;;;;;7396635;19;19943;-72
2023/09/21 10:01:39;;;;;;;6.60;3.72;;;27.30;29.00;;;;;;7399432;19;19930;-72
2023/09/21 10:04:08;;;;;;;6.25;3.13;;;27.50;28.80;;;;;;7395844;19;19926;-73
2023/09/21 10:06:36;;;;;;;7.20;3.42;;;26.90;27.50;;;;;;7398708;19;19961;-72
2023/09/21 10:09:10;;;;;;;7.47;3.53;;;26.70;27.70;;;;;;7396872;19;19929;-72
2023/09/21 10:11:48;;;;;;;7.45;3.67;;;27.10;28.10;;;;;;7399211;19;19941;-72
2023/09/21 10:14:18;;;;;;;;;;;27.00;27.80;;;;;;7399278;19;20339;-72
2023/09/21 10:16:54;;;;;;;6.50;3.83;;;27.50;27.50;;;;;;7383143;19;19925;-72
2023/09/21 10:19:30;;;;;;;7.25;3.65;;;27.10;26.70;;;;;;7392933;19;19938;-72
2023/09/21 10:21:59;;;;;;;7.03;4.00;;;27.30;26.50;;;;;;7396849;19;19926;-73
2023/09/21 10:24:29;;;;;;;7.82;3.55;;;27.40;26.40;;;;;;7397249;19;19950;-72
2023/09/21 10:27:03;;;;;;;6.15;3.63;;;27.80;26.40;;;;;;7397745;19;19930;-73
2023/09/21 10:29:33;;;;;;;7.28;2.90;;;27.80;26.10;;;;;;7398647;19;20538;-74
2023/09/21 10:32:06;;;;;;;7.65;4.50;;;27.70;24.60;;;;;;7400859;19;19974;-71
2023/09/21 10:34:32;;;;;;;6.78;3.55;;;27.70;25.70;;;;;;7398857;19;19923;-72
2023/09/21 10:37:10;;;;;;;7.20;3.03;;;28.30;25.20;;;;;;7397449;19;20268;-72
2023/09/21 10:39:39;;;;;;;6.65;3.30;;;27.80;24.70;;;;;;7402773;19;20260;-72
2023/09/21 10:42:05;;;;;;;6.82;4.07;;;28.40;23.80;;;;;;7402854;19;20602;-72
2023/09/21 10:44:55;;;;;;;7.65;4.05;;;28.90;23.90;;;;;;7405223;19;19941;-72
2023/09/21 10:47:33;;;;;;;;;;;28.50;23.80;;;;;;7404384;19;19999;-72
2023/09/21 10:50:06;;;;;;;6.78;3.97;;;28.70;24.10;;;;;;7406270;19;19989;-72
2023/09/21 10:52:33;;;;;;;6.20;3.65;;;29.20;22.70;;;;;;7400080;19;19914;-72
2023/09/21 10:54:59;;;;;;;8.35;4.00;;;29.20;22.90;;;;;;7404563;19;19914;-73
2023/09/21 10:57:26;;;;;;;7.28;4.28;;;29.20;22.60;;;;;;7401248;19;19974;-72
2023/09/21 10:59:53;;;;;;;7.78;3.80;;;29.90;22.50;;;;;;7401962;19;19915;-72
2023/09/21 11:02:20;;;;;;;8.80;4.68;;;29.70;22.20;;;;;;7381042;19;19919;-73
2023/09/21 11:04:47;;;;;;;7.28;4.18;;;30.00;23.20;;;;;;7397090;19;19947;-73
2023/09/21 11:07:14;;;;;;;8.05;4.53;;;29.70;27.30;;;;;;7388622;19;19923;-73
2023/09/21 11:09:43;;;;;;;8.50;4.63;;;29.60;27.40;;;;;;7388128;19;19921;-73
2023/09/21 11:12:14;;;;;;;8.38;4.15;;;29.40;28.20;;;;;;7396423;19;19915;-74
2023/09/21 11:14:44;;;;;;;10.60;5.00;;;29.80;29.00;;;;;;7404809;19;19911;-73
2023/09/21 11:17:11;;;;;;;7.78;4.43;;;29.60;30.20;;;;;;7396582;19;19921;-72
2023/09/21 11:19:42;;;;;;;6.78;4.07;;;29.00;31.40;;;;;;7394395;19;19919;-73
2023/09/21 11:22:09;;;;;;;7.85;3.15;;;28.90;32.60;;;;;;7385910;19;25497;-73
2023/09/21 11:24:36;;;;;;;8.77;4.45;;;29.00;33.00;;;;;;7395212;19;19926;-72
2023/09/21 11:27:14;;;;;;;7.88;3.88;;;29.10;32.20;;;;;;7393860;19;19918;-72
2023/09/21 11:29:43;;;;;;;6.15;4.05;;;29.10;31.30;;;;;;7400235;19;19952;-73
2023/09/21 11:32:17;;;;;;;7.38;4.00;;;28.70;33.80;;;;;;7393100;19;19914;-73
2023/09/21 11:34:44;;;;;;;10.05;4.18;;;29.70;33.30;;;;;;7395462;19;19968;-74
2023/09/21 11:37:11;;;;;;;9.57;6.80;;;29.90;32.40;;;;;;7401858;19;20264;-72
2023/09/21 11:39:48;;;;;;;7.07;4.57;;;30.40;30.70;;;;;;7404769;19;19917;-73
2023/09/21 11:42:18;;;;;;;6.85;4.00;;;29.80;30.00;;;;;;7374049;19;20258;-75
2023/09/21 11:44:52;;;;;;;8.38;4.05;;;29.90;31.00;;;;;;7390939;19;19923;-73
2023/09/21 11:47:21;;;;;;;7.10;4.28;;;29.90;30.10;;;;;;7394066;19;19915;-74
2023/09/21 11:49:53;;;;;;;9.20;4.75;;;30.30;29.50;;;;;;7395266;19;19996;-73
2023/09/21 11:52:23;;;;;;;6.80;4.55;;;30.20;28.90;;;;;;7392574;19;19914;-74
2023/09/21 11:54:49;;;;;;;8.00;4.35;;;30.60;28.30;;;;;;7381970;19;19942;-75
2023/09/21 11:57:15;;;;;;;7.15;4.45;;;30.40;28.90;;;;;;7385303;19;19914;-74
2023/09/21 11:59:42;;;;;;;7.85;4.20;;;30.90;27.40;;;;;;7399701;19;19914;-73
2023/09/21 12:02:17;;;;;;;8.95;4.00;;;30.40;27.30;;;;;;7386783;19;19915;-72
2023/09/21 12:04:43;;;;;;;6.85;3.65;;;30.60;27.20;;;;;;7399007;19;19918;-73
2023/09/21 12:07:10;;;;;;;7.35;3.45;;;29.90;25.10;;;;;;7394745;19;20263;-74
2023/09/21 12:09:40;;;;;;;6.88;3.67;;;30.00;26.70;;;;;;7382135;19;19933;-73
2023/09/21 12:12:09;;;;;;;7.72;4.43;;;30.00;26.40;;;;;;7397439;19;20694;-72
2023/09/21 12:14:37;;;;;;;6.28;3.90;;;29.80;29.40;;;;;;7396697;19;19914;-73
2023/09/21 12:17:09;;;;;;;8.38;4.28;;;29.10;29.50;;;;;;7396709;19;19928;-74
2023/09/21 12:19:41;;;;;;;7.35;5.10;;;30.00;29.10;;;;;;7392452;19;20612;-71
2023/09/21 12:22:08;;;;;;;5.88;3.63;;;30.20;29.40;;;;;;7393193;19;20347;-72
2023/09/21 12:24:35;;;;;;;6.68;4.03;;;29.40;30.20;;;;;;7395112;19;19910;-72
2023/09/21 12:27:03;;;;;;;8.13;4.78;;;28.20;35.10;;;;;;7398349;19;19989;-72
2023/09/21 12:29:29;;;;;;;6.90;4.18;;;29.70;33.80;;;;;;7396534;19;19922;-71
2023/09/21 12:31:58;;;;;;;8.98;4.28;;;29.30;32.20;;;;;;7386782;19;19922;-72
2023/09/21 12:34:24;;;;;;;8.45;4.07;;;29.80;30.80;;;;;;7394730;19;19919;-72
2023/09/21 12:36:51;;;;;;;9.10;4.15;;;30.00;32.00;;;;;;7401073;19;20338;-75
2023/09/21 12:39:18;;;;;;;12.18;4.43;;;29.40;36.70;;;;;;7391708;19;19951;-72
2023/09/21 12:41:45;;;;;;;7.43;4.10;;;29.10;41.50;;;;;;7396935;19;19922;-73
2023/09/21 12:44:11;;;;;;;7.85;4.38;;;29.00;44.20;;;;;;7397650;19;19919;-73
2023/09/21 12:46:37;;;;;;;;;;;29.10;45.60;;;;;;7404120;19;19941;-74
2023/09/21 12:49:06;;;;;;;7.60;4.13;;;28.90;43.90;;;;;;7400489;19;19923;-75
2023/09/21 12:51:33;;;;;;;7.60;4.25;;;29.80;37.40;;;;;;7396533;19;19933;-73
2023/09/21 12:54:02;;;;;;;7.72;3.95;;;30.10;38.90;;;;;;7401921;19;19926;-72
2023/09/21 12:56:28;;;;;;;6.25;4.35;;;29.60;41.10;;;;;;7394984;19;19918;-73